Overview Statistics Trail Chart Weather Telemetry Raw packets
 

This is the latest recevied weather packets stored in our database for station/object SV1JSO-13. If no packets are shown the sender has not sent any weather packets the latest 10 day(s).

<< 56 57 58 59 60 61 62 >>
Time Temp. Humidity Pressure Rain* Wind** Luminosity Snow
1788285605 30.56° C 37% 1008 hPa 0 mm - 0 W/m² -
1788285300 30.56° C 37% 1007.8 hPa 0 mm - 0 W/m² -
1788285000 30.56° C 37% 1007.9 hPa 0 mm - 0 W/m² -
1788284700 30.56° C 37% 1007.8 hPa 0 mm - 0 W/m² -
1788284400 30.56° C 37% 1007.8 hPa 0 mm - 0 W/m² -
1788284100 31.11° C 36% 1007.6 hPa 0 mm - 0 W/m² -
1788283800 31.11° C 36% 1007.6 hPa 0 mm - 0 W/m² -
1788283500 31.11° C 36% 1007.6 hPa 0 mm - 0 W/m² -
1788283200 31.11° C 36% 1007.6 hPa 0 mm - 0 W/m² -
1788282900 31.11° C 36% 1007.6 hPa 0 mm - 0 W/m² -
1788282600 31.11° C 36% 1007.6 hPa 0 mm - 1 W/m² -
1788282300 31.11° C 36% 1007.6 hPa 0 mm - 1 W/m² -
1788282000 31.11° C 36% 1007.5 hPa 0 mm - 2 W/m² -
1788281721 31.11° C 36% 1007.6 hPa 0 mm - 4 W/m² -
1788281400 31.11° C 35% 1007.6 hPa 0 mm - 7 W/m² -
1788279900 31.67° C 35% 1007.2 hPa 0 mm - 56 W/m² -
1788279600 31.67° C 35% 1007.2 hPa 0 mm - 56 W/m² -
1788279300 31.67° C 35% 1007.2 hPa 0 mm - 56 W/m² -
1788279000 31.67° C 35% 1007.3 hPa 0 mm - 61 W/m² -
1788278700 31.67° C 35% 1007.3 hPa 0 mm - 69 W/m² -
1788278400 31.67° C 34% 1007.3 hPa 0 mm - 80 W/m² -
1788278100 31.67° C 34% 1007.3 hPa 0 mm - 86 W/m² -
1788277800 31.67° C 34% 1007.4 hPa 0 mm - 99 W/m² -
1788277500 31.67° C 34% 1007.4 hPa 0 mm - 116 W/m² -
1788277200 32.22° C 33% 1007.3 hPa 0 mm - 135 W/m² -

* Rain latest hour (hover to see other rain measurements)
** Current wind speed in m/s (hover to see current wind gust speed)